Time;durP1;ratioP1;P1;durP2;ratioP2;P2;SDS_P1;SDS_P2;PMS_P1;PMS_P2;Temp;Humidity;BMP_temperature;BMP_pressure;BME280_temperature;BME280_humidity;BME280_pressure;Samples;Min_cycle;Max_cycle;Signal;HPM_P1;HPM_P2
2022/07/01 00:00:40;;;;;;;18.58;16.60;;;;;;;;;;5039200;27;93232;-73
2022/07/01 00:03:07;;;;;;;22.45;18.23;;;;;;;;;;5032371;27;92499;-73
2022/07/01 00:05:33;;;;;;;22.08;18.30;;;;;;;;;;5032491;27;93192;-73
2022/07/01 00:08:00;;;;;;;22.55;17.95;;;;;;;;;;5032982;27;93106;-72
2022/07/01 00:10:26;;;;;;;20.55;17.95;;;;;;;;;;5031375;27;92560;-73
2022/07/01 00:12:53;;;;;;;27.73;20.73;;;;;;;;;;5031698;27;94858;-73
2022/07/01 00:15:19;;;;;;;28.45;18.42;;;;;;;;;;5039390;27;92516;-73
2022/07/01 00:17:46;;;;;;;25.60;17.90;;;;;;;;;;5031483;27;93368;-73
2022/07/01 00:20:12;;;;;;;25.60;19.80;;;;;;;;;;5031300;27;93217;-72
2022/07/01 00:22:38;;;;;;;26.35;18.02;;;;;;;;;;5045806;27;92522;-73
2022/07/01 00:25:06;;;;;;;20.85;17.42;;;;;;;;;;5051026;27;93257;-73
2022/07/01 00:27:32;;;;;;;24.52;19.60;;;;;;;;;;5054907;27;94512;-73
2022/07/01 00:29:59;;;;;;;24.17;19.33;;;;;;;;;;5040933;27;91859;-72
2022/07/01 00:32:25;;;;;;;28.38;19.20;;;;;;;;;;5035571;27;93072;-73
2022/07/01 00:34:52;;;;;;;24.55;18.75;;;;;;;;;;5051933;27;94219;-72
2022/07/01 00:37:18;;;;;;;23.42;18.70;;;;;;;;;;5036420;27;95402;-73
2022/07/01 00:39:45;;;;;;;28.33;19.75;;;;;;;;;;5035291;27;94173;-73
2022/07/01 00:42:11;;;;;;;23.67;18.65;;;;;;;;;;5034899;27;92563;-73
2022/07/01 00:44:37;;;;;;;33.53;23.73;;;;;;;;;;5053986;27;92989;-73
2022/07/01 00:47:08;;;;;;;24.98;20.55;;;;;;;;;;5040213;27;94119;-72
2022/07/01 00:49:35;;;;;;;26.23;20.25;;;;;;;;;;5035844;27;92885;-73
2022/07/01 00:52:02;;;;;;;26.15;19.48;;;;;;;;;;5046916;27;93936;-73
2022/07/01 00:54:30;;;;;;;25.30;20.33;;;;;;;;;;5045569;27;93485;-73
2022/07/01 00:56:56;;;;;;;20.33;18.23;;;;;;;;;;5051601;27;92486;-72
2022/07/01 00:59:23;;;;;;;28.55;21.05;;;;;;;;;;5035737;27;94191;-72
2022/07/01 01:01:49;;;;;;;24.25;21.63;;;;;;;;;;5033604;27;94945;-72
2022/07/01 01:04:15;;;;;;;25.88;22.10;;;;;;;;;;5040913;27;96417;-73
2022/07/01 01:06:42;;;;;;;26.55;23.00;;;;;;;;;;5053732;27;92884;-72
2022/07/01 01:09:08;;;;;;;30.70;22.23;;;;;;;;;;5054245;27;92539;-72
2022/07/01 01:11:35;;;;;;;26.30;22.95;;;;;;;;;;5045781;27;93214;-72
2022/07/01 01:14:01;;;;;;;31.65;25.63;;;;;;;;;;5042326;27;93476;-72
2022/07/01 01:16:27;;;;;;;29.60;24.23;;;;;;;;;;5043518;27;93090;-72
2022/07/01 01:18:54;;;;;;;35.65;27.58;;;;;;;;;;5033776;27;92662;-72
2022/07/01 01:21:20;;;;;;;30.98;24.80;;;;;;;;;;5035298;27;92595;-72
2022/07/01 01:23:47;;;;;;;31.55;25.65;;;;;;;;;;5033905;27;94038;-72
2022/07/01 01:26:20;;;;;;;34.88;26.15;;;;;;;;;;5046205;27;96711;-72
2022/07/01 01:28:48;;;;;;;36.35;27.10;;;;;;;;;;5044618;27;92493;-72
2022/07/01 01:31:14;;;;;;;36.22;28.98;;;;;;;;;;5034193;27;94763;-73
2022/07/01 01:33:41;;;;;;;34.53;29.25;;;;;;;;;;5038130;27;94536;-72
2022/07/01 01:36:07;;;;;;;32.83;28.20;;;;;;;;;;5035817;27;92475;-73
2022/07/01 01:38:34;;;;;;;32.22;28.45;;;;;;;;;;5036795;27;93068;-73
2022/07/01 01:41:02;;;;;;;34.35;29.13;;;;;;;;;;5044714;27;93824;-73
2022/07/01 01:43:28;;;;;;;37.38;31.02;;;;;;;;;;5048313;27;93091;-73
2022/07/01 01:45:54;;;;;;;41.10;32.17;;;;;;;;;;5035112;27;94161;-73
2022/07/01 01:48:21;;;;;;;44.15;34.03;;;;;;;;;;5054514;27;92454;-73
2022/07/01 01:50:47;;;;;;;43.25;32.47;;;;;;;;;;5034611;27;94902;-73
2022/07/01 01:53:14;;;;;;;40.58;32.35;;;;;;;;;;5036687;27;94164;-73
2022/07/01 01:55:40;;;;;;;45.70;32.40;;;;;;;;;;5045897;27;92614;-73
2022/07/01 01:58:07;;;;;;;41.10;32.65;;;;;;;;;;5052837;27;93217;-73
2022/07/01 02:00:33;;;;;;;44.28;33.33;;;;;;;;;;5049793;27;93856;-73
2022/07/01 02:02:59;;;;;;;43.60;34.47;;;;;;;;;;5033156;27;93356;-73
2022/07/01 02:05:26;;;;;;;42.13;33.53;;;;;;;;;;5033145;27;93491;-73
2022/07/01 02:07:52;;;;;;;45.92;34.03;;;;;;;;;;5043517;27;91839;-73
2022/07/01 02:10:19;;;;;;;41.78;33.45;;;;;;;;;;5034157;27;93227;-73
2022/07/01 02:12:47;;;;;;;56.30;38.83;;;;;;;;;;5032810;27;93480;-73
2022/07/01 02:15:13;;;;;;;42.47;33.90;;;;;;;;;;5041803;27;95213;-73
2022/07/01 02:17:39;;;;;;;49.53;36.70;;;;;;;;;;5038495;27;95525;-72
2022/07/01 02:20:06;;;;;;;46.13;35.65;;;;;;;;;;5049970;27;93610;-73
2022/07/01 02:22:32;;;;;;;50.60;36.95;;;;;;;;;;5043660;27;92574;-73
2022/07/01 02:24:59;;;;;;;56.67;37.35;;;;;;;;;;5033756;27;94216;-73
2022/07/01 02:27:25;;;;;;;60.03;40.10;;;;;;;;;;5033542;27;93588;-72
2022/07/01 02:29:51;;;;;;;64.40;40.70;;;;;;;;;;5041519;27;94130;-72
2022/07/01 02:32:18;;;;;;;59.72;39.33;;;;;;;;;;5033977;27;93569;-72
2022/07/01 02:34:45;;;;;;;59.13;38.38;;;;;;;;;;5046377;27;92484;-72
2022/07/01 02:37:11;;;;;;;57.13;38.47;;;;;;;;;;5035248;27;93926;-72
2022/07/01 02:39:38;;;;;;;51.13;38.30;;;;;;;;;;5030941;27;95823;-72
2022/07/01 02:44:49;;;;;;;48.50;36.83;;;;;;;;;;5035421;27;94225;-72
2022/07/01 02:47:15;;;;;;;51.50;37.67;;;;;;;;;;5033912;27;93116;-72
2022/07/01 02:49:41;;;;;;;49.38;37.97;;;;;;;;;;5037396;27;94111;-72
2022/07/01 02:52:08;;;;;;;58.63;38.75;;;;;;;;;;5043885;27;93536;-73
2022/07/01 02:54:35;;;;;;;64.15;41.00;;;;;;;;;;5032551;27;92431;-72
2022/07/01 02:57:02;;;;;;;59.17;39.60;;;;;;;;;;5037604;27;94211;-72
2022/07/01 02:59:29;;;;;;;50.33;37.05;;;;;;;;;;5035852;27;93778;-72
2022/07/01 03:01:55;;;;;;;57.35;39.90;;;;;;;;;;5052290;27;92569;-73
2022/07/01 03:04:22;;;;;;;53.83;40.30;;;;;;;;;;5049972;27;95018;-72
2022/07/01 03:06:48;;;;;;;59.67;40.72;;;;;;;;;;5041000;27;94137;-72
2022/07/01 03:09:15;;;;;;;62.85;41.28;;;;;;;;;;5042822;27;93017;-72
2022/07/01 03:11:41;;;;;;;59.55;39.38;;;;;;;;;;5036838;27;94302;-72
2022/07/01 03:14:07;;;;;;;56.28;38.13;;;;;;;;;;5039360;27;92578;-72
2022/07/01 03:16:34;;;;;;;57.42;39.67;;;;;;;;;;5031548;27;93178;-72
2022/07/01 03:19:01;;;;;;;62.22;40.30;;;;;;;;;;5031834;27;94528;-72
2022/07/01 03:21:28;;;;;;;58.47;40.40;;;;;;;;;;5041182;27;91633;-72
2022/07/01 03:23:54;;;;;;;70.72;41.80;;;;;;;;;;5031907;27;93181;-72
2022/07/01 03:26:21;;;;;;;71.05;42.80;;;;;;;;;;5034876;27;93436;-72
2022/07/01 03:28:47;;;;;;;64.80;41.85;;;;;;;;;;5038730;27;94965;-72
2022/07/01 03:31:14;;;;;;;61.58;40.40;;;;;;;;;;5043007;27;94333;-72
2022/07/01 03:33:41;;;;;;;64.82;41.53;;;;;;;;;;5047510;27;93553;-72
2022/07/01 03:36:07;;;;;;;59.00;41.05;;;;;;;;;;5045727;27;94199;-72
2022/07/01 03:38:33;;;;;;;62.13;42.13;;;;;;;;;;5032827;27;94247;-72
2022/07/01 03:41:00;;;;;;;65.97;43.17;;;;;;;;;;5032075;27;92472;-72
2022/07/01 03:43:26;;;;;;;69.70;44.90;;;;;;;;;;5032098;27;94375;-73
2022/07/01 03:45:53;;;;;;;75.07;45.25;;;;;;;;;;5046667;27;92594;-72
2022/07/01 03:48:19;;;;;;;68.45;42.58;;;;;;;;;;5036137;27;92472;-72
2022/07/01 03:50:46;;;;;;;64.25;42.05;;;;;;;;;;5034079;27;95354;-72
2022/07/01 03:55:57;;;;;;;66.07;42.60;;;;;;;;;;5034099;27;96431;-72
2022/07/01 03:58:24;;;;;;;56.88;38.47;;;;;;;;;;5045604;27;93607;-73
2022/07/01 04:00:50;;;;;;;56.42;38.28;;;;;;;;;;5039275;27;93603;-72
2022/07/01 04:03:16;;;;;;;60.35;39.33;;;;;;;;;;5039118;27;94034;-72
2022/07/01 04:05:43;;;;;;;60.75;37.40;;;;;;;;;;5038365;27;94108;-72
2022/07/01 04:08:11;;;;;;;61.75;38.45;;;;;;;;;;5038492;27;92420;-73
2022/07/01 04:10:38;;;;;;;54.53;38.30;;;;;;;;;;5042016;27;94025;-72
2022/07/01 04:13:05;;;;;;;53.85;38.85;;;;;;;;;;5046193;27;92610;-72
2022/07/01 04:15:51;;;;;;;52.20;36.38;;;;;;;;;;5038982;27;94285;-72
2022/07/01 04:18:18;;;;;;;53.28;37.47;;;;;;;;;;5037109;27;96813;-73
2022/07/01 04:22:32;;;;;;;55.33;36.05;;;;;;;;;;5045535;27;92571;-72
2022/07/01 04:23:33;;;;;;;50.10;36.90;;;;;;;;;;5038254;27;93282;-72
2022/07/01 04:26:00;;;;;;;52.58;37.38;;;;;;;;;;5041468;27;94717;-72
2022/07/01 04:28:46;;;;;;;46.88;35.45;;;;;;;;;;5039657;27;93493;-72
2022/07/01 04:31:13;;;;;;;47.80;35.42;;;;;;;;;;5038047;27;93251;-72
2022/07/01 04:33:39;;;;;;;50.08;35.22;;;;;;;;;;5044939;27;94149;-72
2022/07/01 04:36:05;;;;;;;44.97;34.40;;;;;;;;;;5039118;27;94036;-72
2022/07/01 04:38:32;;;;;;;52.35;36.00;;;;;;;;;;5038535;27;94265;-72
2022/07/01 04:43:43;;;;;;;50.25;35.85;;;;;;;;;;5056364;27;95202;-72
2022/07/01 04:46:09;;;;;;;48.45;36.50;;;;;;;;;;5053124;27;93257;-72
2022/07/01 04:48:36;;;;;;;44.83;34.47;;;;;;;;;;5037833;27;92583;-72
2022/07/01 04:51:02;;;;;;;47.83;36.63;;;;;;;;;;5040805;27;94195;-72
2022/07/01 04:53:30;;;;;;;45.88;34.78;;;;;;;;;;5042723;27;94301;-72
2022/07/01 04:55:57;;;;;;;47.42;34.70;;;;;;;;;;5055125;27;94035;-72
2022/07/01 04:58:23;;;;;;;49.35;37.25;;;;;;;;;;5053552;27;94127;-72
2022/07/01 05:00:50;;;;;;;45.83;34.20;;;;;;;;;;5049627;27;93052;-72
2022/07/01 05:03:16;;;;;;;44.42;33.17;;;;;;;;;;5049000;27;93261;-72
2022/07/01 05:05:43;;;;;;;43.03;33.17;;;;;;;;;;5040551;27;93384;-72
2022/07/01 05:08:09;;;;;;;46.42;33.38;;;;;;;;;;5035628;27;95252;-73
2022/07/01 05:10:36;;;;;;;56.45;34.83;;;;;;;;;;5047305;27;96454;-72
2022/07/01 05:13:02;;;;;;;46.40;33.42;;;;;;;;;;5045104;27;93343;-72
2022/07/01 05:15:29;;;;;;;48.85;31.25;;;;;;;;;;5045608;27;92811;-72
2022/07/01 05:23:25;;;;;;;42.63;29.63;;;;;;;;;;5042026;27;93980;-73
2022/07/01 05:25:52;;;;;;;40.20;29.95;;;;;;;;;;5051288;27;92486;-72
2022/07/01 05:28:18;;;;;;;43.17;29.52;;;;;;;;;;5042984;27;93299;-72
2022/07/01 05:30:44;;;;;;;32.20;28.05;;;;;;;;;;5039421;27;93762;-72
2022/07/01 05:33:11;;;;;;;36.42;25.35;;;;;;;;;;5032509;27;96759;-73
2022/07/01 05:35:37;;;;;;;36.17;27.65;;;;;;;;;;5034372;27;92461;-73
2022/07/01 05:38:03;;;;;;;29.55;25.15;;;;;;;;;;5052789;27;94004;-73
2022/07/01 05:40:30;;;;;;;33.03;26.42;;;;;;;;;;5042938;27;92532;-72
2022/07/01 05:42:56;;;;;;;28.00;25.10;;;;;;;;;;5045615;27;92455;-73
2022/07/01 05:45:23;;;;;;;32.58;26.80;;;;;;;;;;5044608;27;93501;-73
2022/07/01 05:47:49;;;;;;;33.03;25.45;;;;;;;;;;5033605;27;92499;-72
2022/07/01 05:50:16;;;;;;;35.33;26.00;;;;;;;;;;5035691;27;92452;-72
2022/07/01 05:52:44;;;;;;;27.88;24.67;;;;;;;;;;5047589;27;94446;-73
2022/07/01 05:55:10;;;;;;;30.13;24.65;;;;;;;;;;5045830;27;93452;-72
2022/07/01 05:57:36;;;;;;;32.75;25.60;;;;;;;;;;5031747;27;94841;-72
2022/07/01 06:00:03;;;;;;;26.77;16.77;;;;;;;;;;5036627;27;94141;-73
2022/07/01 06:02:37;;;;;;;28.77;22.67;;;;;;;;;;5037122;27;92592;-73
2022/07/01 06:05:03;;;;;;;35.88;23.33;;;;;;;;;;5034429;27;92471;-73
2022/07/01 06:07:30;;;;;;;28.38;23.58;;;;;;;;;;5037602;27;93893;-73
2022/07/01 06:09:56;;;;;;;29.00;23.95;;;;;;;;;;5035067;27;93352;-73
2022/07/01 06:12:23;;;;;;;33.13;23.33;;;;;;;;;;5036455;27;94629;-73
2022/07/01 06:14:49;;;;;;;29.15;22.30;;;;;;;;;;5037365;27;91790;-73
2022/07/01 06:17:16;;;;;;;35.25;21.27;;;;;;;;;;5037073;27;94426;-73
2022/07/01 06:19:42;;;;;;;26.27;20.67;;;;;;;;;;5028818;27;94204;-73
2022/07/01 06:22:09;;;;;;;26.25;21.52;;;;;;;;;;5037076;27;95625;-73
2022/07/01 06:24:35;;;;;;;25.33;20.13;;;;;;;;;;5043151;27;93348;-73
2022/07/01 06:27:04;;;;;;;25.23;19.70;;;;;;;;;;5044910;27;92916;-73
2022/07/01 06:29:30;;;;;;;26.65;20.08;;;;;;;;;;5041032;27;94172;-73
2022/07/01 06:31:57;;;;;;;24.52;18.38;;;;;;;;;;5034642;27;94104;-73
2022/07/01 06:34:24;;;;;;;25.90;18.83;;;;;;;;;;5039654;27;92893;-74
2022/07/01 06:36:50;;;;;;;21.25;18.98;;;;;;;;;;5032948;27;93087;-74
2022/07/01 06:39:17;;;;;;;22.40;18.30;;;;;;;;;;5035837;27;94042;-74
2022/07/01 06:41:43;;;;;;;25.55;18.35;;;;;;;;;;5026891;27;94248;-73
2022/07/01 06:44:10;;;;;;;21.10;16.33;;;;;;;;;;5030436;27;93199;-73
2022/07/01 06:46:36;;;;;;;24.23;17.98;;;;;;;;;;5028725;27;95460;-73
2022/07/01 06:49:03;;;;;;;23.70;17.35;;;;;;;;;;5037491;27;95560;-72
2022/07/01 06:51:30;;;;;;;22.67;17.33;;;;;;;;;;5032372;27;94367;-72
2022/07/01 06:53:56;;;;;;;25.27;17.13;;;;;;;;;;5033999;27;93732;-72
2022/07/01 06:56:22;;;;;;;16.98;14.77;;;;;;;;;;5032331;27;93189;-72
2022/07/01 06:58:49;;;;;;;18.02;14.18;;;;;;;;;;5037073;27;94728;-72
2022/07/01 07:01:15;;;;;;;22.30;13.70;;;;;;;;;;5036218;27;92445;-72
2022/07/01 07:03:41;;;;;;;15.68;12.27;;;;;;;;;;5040193;27;95754;-71
2022/07/01 07:06:08;;;;;;;15.27;11.82;;;;;;;;;;5035645;27;93742;-71
2022/07/01 07:08:34;;;;;;;15.77;10.25;;;;;;;;;;5032396;27;92890;-71
2022/07/01 07:11:02;;;;;;;19.02;11.10;;;;;;;;;;5031285;27;96537;-71
2022/07/01 07:13:29;;;;;;;17.63;9.90;;;;;;;;;;5033050;27;92798;-74
2022/07/01 07:15:55;;;;;;;13.77;9.60;;;;;;;;;;5032381;27;93120;-71
2022/07/01 07:18:21;;;;;;;11.20;8.38;;;;;;;;;;5033029;27;93135;-71
2022/07/01 07:20:48;;;;;;;11.95;7.40;;;;;;;;;;5032825;27;92446;-72
2022/07/01 07:23:15;;;;;;;13.07;7.30;;;;;;;;;;5032955;27;93927;-72
2022/07/01 07:25:41;;;;;;;10.93;6.72;;;;;;;;;;5032270;27;93436;-72
2022/07/01 07:28:07;;;;;;;12.02;6.15;;;;;;;;;;5037037;27;91848;-72
2022/07/01 07:30:34;;;;;;;9.93;5.63;;;;;;;;;;5031752;27;94471;-75
2022/07/01 07:33:00;;;;;;;7.68;5.00;;;;;;;;;;5033537;27;92468;-75
2022/07/01 07:35:27;;;;;;;12.30;5.70;;;;;;;;;;5039977;27;94851;-73
2022/07/01 07:37:54;;;;;;;9.88;4.93;;;;;;;;;;5032176;27;94628;-73
2022/07/01 07:40:20;;;;;;;10.63;4.78;;;;;;;;;;5032652;27;92927;-73
2022/07/01 07:42:47;;;;;;;8.50;4.40;;;;;;;;;;5040466;27;94000;-73
2022/07/01 07:45:14;;;;;;;7.53;3.47;;;;;;;;;;5033219;27;94671;-73
2022/07/01 07:47:48;;;;;;;8.73;3.70;;;;;;;;;;5037767;27;92488;-73
2022/07/01 07:50:15;;;;;;;9.57;3.85;;;;;;;;;;5046218;27;92677;-73
2022/07/01 07:52:42;;;;;;;8.43;3.13;;;;;;;;;;5033038;27;91813;-72
2022/07/01 07:55:09;;;;;;;8.93;3.25;;;;;;;;;;5038161;27;93418;-72
2022/07/01 07:57:36;;;;;;;13.38;3.90;;;;;;;;;;5043222;27;94429;-72
2022/07/01 08:00:03;;;;;;;7.28;3.13;;;;;;;;;;5031862;27;95242;-73
2022/07/01 08:02:37;;;;;;;7.38;3.40;;;;;;;;;;5040251;27;94885;-72
2022/07/01 08:05:03;;;;;;;12.82;3.90;;;;;;;;;;5052118;27;94753;-72
2022/07/01 08:07:34;;;;;;;8.73;3.65;;;;;;;;;;5037248;27;92501;-73
2022/07/01 08:10:00;;;;;;;7.28;3.13;;;;;;;;;;5044418;27;94094;-72
2022/07/01 08:12:27;;;;;;;10.48;3.65;;;;;;;;;;5033510;27;93913;-72
2022/07/01 08:14:53;;;;;;;6.28;2.85;;;;;;;;;;5032774;27;93879;-73
2022/07/01 08:17:19;;;;;;;7.43;3.08;;;;;;;;;;5046956;27;93812;-73
2022/07/01 08:19:46;;;;;;;7.07;2.83;;;;;;;;;;5043493;27;92800;-73
2022/07/01 08:22:13;;;;;;;6.88;2.80;;;;;;;;;;5044672;27;93985;-73
2022/07/01 08:24:39;;;;;;;9.98;3.28;;;;;;;;;;5042135;27;96863;-73
2022/07/01 08:27:06;;;;;;;6.95;2.80;;;;;;;;;;5041817;27;92890;-72
2022/07/01 08:29:33;;;;;;;7.63;2.42;;;;;;;;;;5044723;27;93290;-73
2022/07/01 08:32:00;;;;;;;15.38;2.92;;;;;;;;;;5018391;27;93982;-73
2022/07/01 08:34:27;;;;;;;8.18;2.30;;;;;;;;;;5038004;27;94041;-72
2022/07/01 08:36:53;;;;;;;6.05;2.60;;;;;;;;;;5042470;27;94494;-72
2022/07/01 08:39:20;;;;;;;10.73;2.70;;;;;;;;;;5032473;27;93648;-73
2022/07/01 08:41:47;;;;;;;11.23;3.03;;;;;;;;;;5040961;27;94027;-73
2022/07/01 08:44:14;;;;;;;8.82;2.40;;;;;;;;;;5034708;27;96390;-73
2022/07/01 08:46:43;;;;;;;4.53;2.30;;;;;;;;;;5034242;27;92521;-72
2022/07/01 08:49:09;;;;;;;5.82;1.90;;;;;;;;;;5042429;27;95088;-73
2022/07/01 08:51:36;;;;;;;6.75;2.22;;;;;;;;;;5035864;27;94261;-73
2022/07/01 08:54:02;;;;;;;10.60;2.72;;;;;;;;;;5038600;27;92481;-73
2022/07/01 08:56:41;;;;;;;9.75;1.92;;;;;;;;;;5043707;27;94253;-72
2022/07/01 08:59:07;;;;;;;4.90;2.03;;;;;;;;;;5045008;27;92491;-72
2022/07/01 09:01:34;;;;;;;5.18;1.40;;;;;;;;;;5041300;27;94263;-73
2022/07/01 09:04:14;;;;;;;9.13;1.77;;;;;;;;;;5035657;27;94293;-72
2022/07/01 09:06:41;;;;;;;6.13;2.33;;;;;;;;;;5049508;27;91691;-72
2022/07/01 09:09:12;;;;;;;8.25;1.60;;;;;;;;;;5036504;27;93202;-72
2022/07/01 09:11:43;;;;;;;6.68;1.90;;;;;;;;;;5035534;27;94331;-73
2022/07/01 09:14:11;;;;;;;11.80;2.20;;;;;;;;;;5041958;27;95794;-73
2022/07/01 09:16:44;;;;;;;5.80;2.10;;;;;;;;;;5037786;27;96500;-72
2022/07/01 09:19:11;;;;;;;10.57;2.28;;;;;;;;;;5035674;27;92410;-72
2022/07/01 09:21:38;;;;;;;5.15;1.73;;;;;;;;;;5042590;27;92519;-72
2022/07/01 09:24:21;;;;;;;3.58;1.75;;;;;;;;;;5035542;27;94260;-73
2022/07/01 09:26:58;;;;;;;9.70;2.22;;;;;;;;;;5035082;27;92468;-73
2022/07/01 09:29:28;;;;;;;6.32;1.80;;;;;;;;;;5051201;27;93843;-73
2022/07/01 09:31:55;;;;;;;10.55;2.92;;;;;;;;;;5051094;27;92543;-73
2022/07/01 09:34:22;;;;;;;9.55;2.20;;;;;;;;;;5044310;27;93371;-73
2022/07/01 09:36:52;;;;;;;7.28;1.65;;;;;;;;;;5037434;27;93762;-73
2022/07/01 09:39:19;;;;;;;4.95;1.48;;;;;;;;;;5033340;27;94806;-73
2022/07/01 09:42:00;;;;;;;4.30;2.13;;;;;;;;;;5043149;27;95220;-73
2022/07/01 09:44:27;;;;;;;5.78;2.15;;;;;;;;;;5050758;27;94418;-73
2022/07/01 09:46:56;;;;;;;8.27;2.05;;;;;;;;;;5041951;27;92604;-73
2022/07/01 09:49:23;;;;;;;8.73;1.90;;;;;;;;;;5043995;27;93243;-73
2022/07/01 09:51:52;;;;;;;5.65;2.33;;;;;;;;;;5034823;27;94576;-73
2022/07/01 09:54:19;;;;;;;4.45;1.60;;;;;;;;;;5034626;27;92470;-73
2022/07/01 09:56:46;;;;;;;5.90;1.50;;;;;;;;;;5047882;27;93757;-73
2022/07/01 09:59:16;;;;;;;2.50;1.33;;;;;;;;;;5039878;27;94570;-73
2022/07/01 10:01:43;;;;;;;3.90;1.52;;;;;;;;;;5034610;27;94419;-73
2022/07/01 10:04:11;;;;;;;3.58;1.23;;;;;;;;;;5047532;27;95712;-73
2022/07/01 10:06:46;;;;;;;4.07;1.35;;;;;;;;;;5016788;28;93405;-73
2022/07/01 10:09:22;;;;;;;4.55;1.25;;;;;;;;;;5043333;27;93995;-73
2022/07/01 10:11:49;;;;;;;4.43;1.55;;;;;;;;;;5040574;27;93972;-73
2022/07/01 10:14:16;;;;;;;3.42;1.25;;;;;;;;;;5034815;27;92473;-73
2022/07/01 10:16:45;;;;;;;1.88;0.90;;;;;;;;;;5046010;27;93120;-73
2022/07/01 10:19:20;;;;;;;4.10;1.27;;;;;;;;;;5037317;27;94191;-73
2022/07/01 10:21:47;;;;;;;4.38;1.30;;;;;;;;;;5042183;27;92119;-73
2022/07/01 10:24:14;;;;;;;3.03;1.10;;;;;;;;;;5046237;27;94007;-73
2022/07/01 10:26:41;;;;;;;2.15;1.05;;;;;;;;;;5033683;27;92875;-73
2022/07/01 10:29:27;;;;;;;3.13;0.68;;;;;;;;;;5039932;27;94839;-72
2022/07/01 10:31:53;;;;;;;4.15;1.05;;;;;;;;;;5039648;27;94163;-73
2022/07/01 10:34:24;;;;;;;3.15;1.25;;;;;;;;;;5033471;27;93224;-73
2022/07/01 10:37:04;;;;;;;3.33;1.20;;;;;;;;;;5041791;27;93787;-73
2022/07/01 10:39:30;;;;;;;5.75;1.48;;;;;;;;;;5050890;27;93494;-72
2022/07/01 10:41:58;;;;;;;7.82;1.40;;;;;;;;;;5048995;27;92671;-73
2022/07/01 10:45:01;;;;;;;3.05;1.08;;;;;;;;;;5046714;27;94287;-73
2022/07/01 10:47:27;;;;;;;3.00;1.40;;;;;;;;;;5035820;27;91702;-73
2022/07/01 10:50:04;;;;;;;5.60;1.13;;;;;;;;;;5038180;27;93452;-73
2022/07/01 10:52:31;;;;;;;4.18;1.10;;;;;;;;;;5044135;27;94658;-73
2022/07/01 10:54:58;;;;;;;7.40;1.45;;;;;;;;;;5035123;27;94867;-72
2022/07/01 10:57:29;;;;;;;5.60;1.10;;;;;;;;;;5036374;27;96467;-73
2022/07/01 11:00:15;;;;;;;2.90;1.43;;;;;;;;;;5032831;27;94791;-73
2022/07/01 11:02:41;;;;;;;3.45;1.27;;;;;;;;;;5036022;27;92499;-73
2022/07/01 11:05:15;;;;;;;6.63;1.27;;;;;;;;;;5035666;27;94109;-73
2022/07/01 11:07:42;;;;;;;7.22;1.38;;;;;;;;;;5032835;27;94037;-73
2022/07/01 11:10:10;;;;;;;3.30;1.20;;;;;;;;;;5037250;27;94100;-73
2022/07/01 11:12:37;;;;;;;5.82;1.75;;;;;;;;;;5033758;27;92349;-72
2022/07/01 11:15:07;;;;;;;4.75;1.25;;;;;;;;;;5033057;27;94283;-72
2022/07/01 11:17:34;;;;;;;6.65;1.40;;;;;;;;;;5035689;27;94070;-72
2022/07/01 11:20:03;;;;;;;3.22;1.10;;;;;;;;;;5035689;27;95733;-72
2022/07/01 11:22:33;;;;;;;4.72;1.40;;;;;;;;;;5032034;27;93009;-72
2022/07/01 11:25:01;;;;;;;5.40;1.05;;;;;;;;;;5032360;27;96328;-72
2022/07/01 11:27:28;;;;;;;4.35;1.25;;;;;;;;;;5042421;27;94194;-72
2022/07/01 11:29:56;;;;;;;2.47;1.10;;;;;;;;;;5041945;27;92483;-72
2022/07/01 11:32:26;;;;;;;4.20;1.10;;;;;;;;;;5031940;27;94303;-72
2022/07/01 11:34:53;;;;;;;4.25;1.65;;;;;;;;;;5034583;27;94266;-72
2022/07/01 11:40:08;;;;;;;5.90;1.70;;;;;;;;;;5035201;27;94166;-72
2022/07/01 11:42:35;;;;;;;6.93;1.40;;;;;;;;;;5033238;27;93785;-72
2022/07/01 11:45:02;;;;;;;4.15;1.27;;;;;;;;;;5028937;27;96831;-72
2022/07/01 11:47:28;;;;;;;7.50;1.35;;;;;;;;;;5033579;27;92613;-72
2022/07/01 11:49:55;;;;;;;2.78;0.98;;;;;;;;;;5034270;27;94108;-71
2022/07/01 11:52:22;;;;;;;3.60;1.05;;;;;;;;;;5031372;27;94229;-71
2022/07/01 11:54:49;;;;;;;3.13;1.10;;;;;;;;;;5027028;27;93653;-72
2022/07/01 11:57:17;;;;;;;7.93;1.77;;;;;;;;;;5027002;27;93892;-72
2022/07/01 11:59:44;;;;;;;3.88;1.38;;;;;;;;;;5035468;27;93424;-73
2022/07/01 12:02:12;;;;;;;2.70;1.27;;;;;;;;;;5038906;27;91947;-72
2022/07/01 12:04:38;;;;;;;3.53;1.00;;;;;;;;;;5035419;27;93178;-71
2022/07/01 12:07:05;;;;;;;9.50;1.42;;;;;;;;;;5031469;27;94228;-71
2022/07/01 12:09:32;;;;;;;2.28;1.45;;;;;;;;;;5025007;27;95701;-71
2022/07/01 12:11:58;;;;;;;3.00;1.10;;;;;;;;;;5034443;27;94191;-71
2022/07/01 12:14:31;;;;;;;3.33;1.00;;;;;;;;;;5027990;27;94367;-71
2022/07/01 12:17:05;;;;;;;1.52;1.00;;;;;;;;;;5031097;27;94044;-71
2022/07/01 12:19:32;;;;;;;3.40;0.80;;;;;;;;;;5032092;27;94417;-71
2022/07/01 12:21:58;;;;;;;4.63;1.30;;;;;;;;;;5032754;27;93947;-72
2022/07/01 12:24:25;;;;;;;3.40;1.05;;;;;;;;;;5029293;27;94227;-72
2022/07/01 12:26:53;;;;;;;5.25;1.20;;;;;;;;;;5035274;27;93991;-71
2022/07/01 12:29:23;;;;;;;5.35;1.15;;;;;;;;;;5036639;27;93058;-71
2022/07/01 12:32:00;;;;;;;1.35;0.93;;;;;;;;;;5028886;27;94712;-71
2022/07/01 12:34:36;;;;;;;4.55;1.40;;;;;;;;;;5032317;27;96371;-71
2022/07/01 12:37:02;;;;;;;1.48;1.33;;;;;;;;;;5038996;27;95654;-71
2022/07/01 12:39:29;;;;;;;2.20;1.00;;;;;;;;;;5048397;27;94282;-71
2022/07/01 12:41:57;;;;;;;3.25;0.82;;;;;;;;;;5041582;27;92624;-71
2022/07/01 12:44:24;;;;;;;1.83;0.80;;;;;;;;;;5038677;27;93750;-71
2022/07/01 12:46:51;;;;;;;2.60;1.00;;;;;;;;;;5039166;27;95018;-71
2022/07/01 12:49:24;;;;;;;3.05;0.90;;;;;;;;;;5033283;27;93892;-71
2022/07/01 12:51:51;;;;;;;2.70;1.27;;;;;;;;;;5040636;27;94137;-71
2022/07/01 12:54:31;;;;;;;2.97;1.10;;;;;;;;;;5045466;27;93535;-70
2022/07/01 12:56:58;;;;;;;4.43;1.35;;;;;;;;;;5044534;27;92634;-71
2022/07/01 12:59:24;;;;;;;1.60;0.90;;;;;;;;;;5045119;27;96414;-71
2022/07/01 13:01:51;;;;;;;4.50;1.33;;;;;;;;;;5032210;27;93838;-71
2022/07/01 13:04:24;;;;;;;3.15;1.33;;;;;;;;;;5034070;27;93093;-71
2022/07/01 13:06:51;;;;;;;11.27;1.40;;;;;;;;;;5030777;27;94614;-72
2022/07/01 13:09:17;;;;;;;6.65;1.58;;;;;;;;;;5032767;27;94047;-72
2022/07/01 13:11:44;;;;;;;3.88;1.10;;;;;;;;;;5036714;27;95060;-71
2022/07/01 13:14:10;;;;;;;4.10;1.42;;;;;;;;;;5036544;27;94238;-72
2022/07/01 13:16:37;;;;;;;6.72;1.90;;;;;;;;;;5035627;27;91855;-71
2022/07/01 13:19:04;;;;;;;2.72;1.08;;;;;;;;;;5033425;27;93351;-71
2022/07/01 13:21:30;;;;;;;2.00;1.20;;;;;;;;;;5036119;27;93106;-71
2022/07/01 13:23:56;;;;;;;3.40;1.20;;;;;;;;;;5029697;27;96136;-71
2022/07/01 13:26:43;;;;;;;5.18;1.25;;;;;;;;;;5036401;27;93471;-71
2022/07/01 13:29:09;;;;;;;3.72;1.13;;;;;;;;;;5037126;27;94181;-71
2022/07/01 13:31:35;;;;;;;4.22;1.35;;;;;;;;;;5034911;27;93941;-71
2022/07/01 13:34:02;;;;;;;4.30;1.50;;;;;;;;;;5028433;27;94720;-71
2022/07/01 13:36:28;;;;;;;4.85;1.48;;;;;;;;;;5037216;27;93636;-71
2022/07/01 13:38:55;;;;;;;4.65;1.30;;;;;;;;;;5048112;27;93950;-71
2022/07/01 13:41:23;;;;;;;2.85;1.02;;;;;;;;;;5048725;27;91803;-71
2022/07/01 13:43:50;;;;;;;7.68;1.75;;;;;;;;;;5037422;27;93227;-71
2022/07/01 13:46:16;;;;;;;3.85;1.38;;;;;;;;;;5047831;27;94150;-71
2022/07/01 13:48:42;;;;;;;4.55;1.58;;;;;;;;;;5042217;27;94966;-71
2022/07/01 13:51:09;;;;;;;3.92;1.38;;;;;;;;;;5042155;27;96340;-71
2022/07/01 13:53:35;;;;;;;6.75;1.70;;;;;;;;;;5042823;27;93948;-71
2022/07/01 13:56:02;;;;;;;4.78;1.77;;;;;;;;;;5035217;27;94253;-73
2022/07/01 13:58:28;;;;;;;5.50;1.58;;;;;;;;;;5040467;27;94812;-72
2022/07/01 14:00:55;;;;;;;2.53;1.00;;;;;;;;;;5051085;27;94222;-71
2022/07/01 14:03:21;;;;;;;2.20;1.10;;;;;;;;;;5050647;27;94067;-71
2022/07/01 14:05:48;;;;;;;3.13;1.20;;;;;;;;;;5034915;27;93516;-74
2022/07/01 14:08:14;;;;;;;6.38;1.10;;;;;;;;;;5035120;27;92627;-73
2022/07/01 14:10:43;;;;;;;1.88;1.02;;;;;;;;;;5042270;27;93890;-74
2022/07/01 14:13:10;;;;;;;1.92;1.17;;;;;;;;;;5041435;27;96367;-74
2022/07/01 14:15:37;;;;;;;5.03;1.40;;;;;;;;;;5034213;27;92732;-72
2022/07/01 14:18:03;;;;;;;7.80;1.48;;;;;;;;;;5033296;27;93097;-71
2022/07/01 14:20:30;;;;;;;5.25;1.88;;;;;;;;;;5035263;27;94318;-71
2022/07/01 14:22:56;;;;;;;4.18;1.50;;;;;;;;;;5057486;27;92589;-72
2022/07/01 14:25:23;;;;;;;2.58;1.17;;;;;;;;;;5045135;27;94373;-72
2022/07/01 14:27:49;;;;;;;3.47;1.40;;;;;;;;;;5037674;27;92959;-71
2022/07/01 14:30:16;;;;;;;5.22;1.35;;;;;;;;;;5046784;27;93941;-71
2022/07/01 14:32:42;;;;;;;3.72;1.17;;;;;;;;;;5051459;27;94478;-71
2022/07/01 14:35:08;;;;;;;5.40;1.58;;;;;;;;;;5045580;27;93418;-71
2022/07/01 14:37:36;;;;;;;4.22;1.35;;;;;;;;;;5044331;27;94800;-71
2022/07/01 14:40:03;;;;;;;5.13;1.42;;;;;;;;;;5044982;27;94144;-71
2022/07/01 14:42:30;;;;;;;4.57;1.10;;;;;;;;;;5044988;27;92476;-71
2022/07/01 14:44:56;;;;;;;2.97;1.02;;;;;;;;;;5041307;27;93877;-71
2022/07/01 14:47:23;;;;;;;1.42;0.90;;;;;;;;;;5033171;27;92424;-71